sensor_id;sensor_type;location;lat;lon;timestamp;pressure;altitude;pressure_sealevel;temperature;humidity
43119;BME280;28729;49.838;8.650;2022-08-18T00:03:04;99324.94;;;21.74;59.28
43119;BME280;28729;49.838;8.650;2022-08-18T00:07:29;99332.75;;;21.69;59.71
43119;BME280;28729;49.838;8.650;2022-08-18T00:11:35;99344.00;;;21.60;59.58
43119;BME280;28729;49.838;8.650;2022-08-18T00:15:42;99337.88;;;21.58;59.95
43119;BME280;28729;49.838;8.650;2022-08-18T00:19:49;99340.00;;;21.61;59.86
43119;BME280;28729;49.838;8.650;2022-08-18T00:23:52;99338.69;;;21.67;59.39
43119;BME280;28729;49.838;8.650;2022-08-18T00:27:54;99334.38;;;21.70;59.60
43119;BME280;28729;49.838;8.650;2022-08-18T00:31:56;99331.72;;;21.73;59.42
43119;BME280;28729;49.838;8.650;2022-08-18T00:35:58;99345.88;;;21.77;59.69
43119;BME280;28729;49.838;8.650;2022-08-18T00:39:59;99354.94;;;21.82;59.77
43119;BME280;28729;49.838;8.650;2022-08-18T00:44:02;99356.91;;;21.91;59.41
43119;BME280;28729;49.838;8.650;2022-08-18T00:48:06;99347.47;;;21.95;59.28
43119;BME280;28729;49.838;8.650;2022-08-18T00:52:11;99338.38;;;21.98;59.59
43119;BME280;28729;49.838;8.650;2022-08-18T00:56:25;99346.13;;;22.01;59.95
43119;BME280;28729;49.838;8.650;2022-08-18T01:00:28;99343.47;;;22.05;59.89
43119;BME280;28729;49.838;8.650;2022-08-18T01:04:41;99343.75;;;22.12;60.56
43119;BME280;28729;49.838;8.650;2022-08-18T01:08:45;99352.00;;;22.17;60.75
43119;BME280;28729;49.838;8.650;2022-08-18T01:12:50;99341.75;;;22.21;61.00
43119;BME280;28729;49.838;8.650;2022-08-18T01:16:52;99346.00;;;22.27;61.80
43119;BME280;28729;49.838;8.650;2022-08-18T01:21:17;99342.69;;;22.34;61.81
43119;BME280;28729;49.838;8.650;2022-08-18T01:25:40;99337.53;;;22.36;62.51
43119;BME280;28729;49.838;8.650;2022-08-18T01:30:06;99328.78;;;22.38;62.75
43119;BME280;28729;49.838;8.650;2022-08-18T01:34:10;99340.69;;;22.35;63.33
43119;BME280;28729;49.838;8.650;2022-08-18T01:38:12;99346.16;;;22.31;64.71
43119;BME280;28729;49.838;8.650;2022-08-18T01:42:15;99346.50;;;22.29;64.67
43119;BME280;28729;49.838;8.650;2022-08-18T01:46:20;99345.19;;;22.27;65.67
43119;BME280;28729;49.838;8.650;2022-08-18T01:50:21;99350.34;;;22.25;65.72
43119;BME280;28729;49.838;8.650;2022-08-18T01:54:23;99349.84;;;22.23;65.67
43119;BME280;28729;49.838;8.650;2022-08-18T01:58:26;99352.97;;;22.21;65.84
43119;BME280;28729;49.838;8.650;2022-08-18T02:02:32;99360.94;;;22.19;66.51
43119;BME280;28729;49.838;8.650;2022-08-18T02:06:34;99357.47;;;22.14;66.60
43119;BME280;28729;49.838;8.650;2022-08-18T02:10:36;99365.25;;;22.08;66.88
43119;BME280;28729;49.838;8.650;2022-08-18T02:14:38;99352.88;;;22.00;67.66
43119;BME280;28729;49.838;8.650;2022-08-18T02:18:40;99348.81;;;21.89;68.79
43119;BME280;28729;49.838;8.650;2022-08-18T02:22:49;99349.16;;;21.88;68.08
43119;BME280;28729;49.838;8.650;2022-08-18T02:26:51;99344.06;;;21.81;68.70
43119;BME280;28729;49.838;8.650;2022-08-18T02:30:52;99344.09;;;21.72;68.99
43119;BME280;28729;49.838;8.650;2022-08-18T02:34:54;99343.78;;;21.65;69.71
43119;BME280;28729;49.838;8.650;2022-08-18T02:38:56;99342.81;;;21.61;69.43
43119;BME280;28729;49.838;8.650;2022-08-18T02:43:07;99346.78;;;21.60;70.08
43119;BME280;28729;49.838;8.650;2022-08-18T02:47:10;99338.84;;;21.62;70.07
43119;BME280;28729;49.838;8.650;2022-08-18T02:51:14;99340.84;;;21.61;70.20
43119;BME280;28729;49.838;8.650;2022-08-18T02:55:16;99341.19;;;21.60;70.49
43119;BME280;28729;49.838;8.650;2022-08-18T02:59:21;99338.38;;;21.60;70.55
43119;BME280;28729;49.838;8.650;2022-08-18T03:03:32;99338.38;;;21.60;70.49
43119;BME280;28729;49.838;8.650;2022-08-18T03:07:33;99335.72;;;21.64;70.30
43119;BME280;28729;49.838;8.650;2022-08-18T03:11:40;99343.13;;;21.68;70.44
43119;BME280;28729;49.838;8.650;2022-08-18T03:15:44;99338.69;;;21.67;70.33
43119;BME280;28729;49.838;8.650;2022-08-18T03:19:45;99330.63;;;21.66;70.62
43119;BME280;28729;49.838;8.650;2022-08-18T03:23:49;99346.94;;;21.64;70.51
43119;BME280;28729;49.838;8.650;2022-08-18T03:28:03;99341.50;;;21.58;70.95
43119;BME280;28729;49.838;8.650;2022-08-18T03:32:05;99346.81;;;21.51;72.29
43119;BME280;28729;49.838;8.650;2022-08-18T03:36:10;99338.94;;;21.45;71.82
43119;BME280;28729;49.838;8.650;2022-08-18T03:40:12;99339.41;;;21.47;71.36
43119;BME280;28729;49.838;8.650;2022-08-18T03:44:14;99332.81;;;21.51;71.41
43119;BME280;28729;49.838;8.650;2022-08-18T03:48:16;99328.00;;;21.52;70.99
43119;BME280;28729;49.838;8.650;2022-08-18T03:52:17;99331.97;;;21.51;71.64
43119;BME280;28729;49.838;8.650;2022-08-18T03:56:22;99325.22;;;21.52;71.62
43119;BME280;28729;49.838;8.650;2022-08-18T04:00:29;99331.63;;;21.52;71.24
43119;BME280;28729;49.838;8.650;2022-08-18T04:04:31;99330.81;;;21.52;71.43
43119;BME280;28729;49.838;8.650;2022-08-18T04:08:33;99337.09;;;21.49;71.81
43119;BME280;28729;49.838;8.650;2022-08-18T04:12:35;99326.53;;;21.46;71.08
43119;BME280;28729;49.838;8.650;2022-08-18T04:16:40;99327.03;;;21.48;71.38
43119;BME280;28729;49.838;8.650;2022-08-18T04:20:42;99336.13;;;21.45;71.62
43119;BME280;28729;49.838;8.650;2022-08-18T04:25:00;99329.66;;;21.44;71.24
43119;BME280;28729;49.838;8.650;2022-08-18T04:29:04;99338.25;;;21.48;71.63
43119;BME280;28729;49.838;8.650;2022-08-18T04:33:06;99336.59;;;21.47;71.61
43119;BME280;28729;49.838;8.650;2022-08-18T04:37:08;99344.69;;;21.48;71.65
43119;BME280;28729;49.838;8.650;2022-08-18T04:41:11;99350.59;;;21.47;72.19
43119;BME280;28729;49.838;8.650;2022-08-18T04:45:13;99357.53;;;21.49;71.95
43119;BME280;28729;49.838;8.650;2022-08-18T04:49:16;99356.72;;;21.49;72.05
43119;BME280;28729;49.838;8.650;2022-08-18T04:53:19;99359.00;;;21.47;72.45
43119;BME280;28729;49.838;8.650;2022-08-18T04:57:39;99348.97;;;21.46;73.22
43119;BME280;28729;49.838;8.650;2022-08-18T05:01:44;99366.28;;;21.48;73.36
43119;BME280;28729;49.838;8.650;2022-08-18T05:05:46;99361.50;;;21.39;74.29
43119;BME280;28729;49.838;8.650;2022-08-18T05:09:48;99359.66;;;21.35;75.36
43119;BME280;28729;49.838;8.650;2022-08-18T05:13:50;99361.81;;;21.29;75.68
43119;BME280;28729;49.838;8.650;2022-08-18T05:17:56;99364.47;;;21.17;76.99
43119;BME280;28729;49.838;8.650;2022-08-18T05:21:58;99366.63;;;21.11;78.02
43119;BME280;28729;49.838;8.650;2022-08-18T05:26:03;99363.00;;;21.11;77.15
43119;BME280;28729;49.838;8.650;2022-08-18T05:30:06;99358.06;;;21.08;78.06
43119;BME280;28729;49.838;8.650;2022-08-18T05:34:07;99365.28;;;21.09;79.01
43119;BME280;28729;49.838;8.650;2022-08-18T05:38:27;99376.03;;;21.15;80.00
43119;BME280;28729;49.838;8.650;2022-08-18T05:42:37;99373.22;;;21.24;79.56
43119;BME280;28729;49.838;8.650;2022-08-18T05:50:44;99374.69;;;21.48;79.88
43119;BME280;28729;49.838;8.650;2022-08-18T05:54:48;99381.91;;;21.57;79.52
43119;BME280;28729;49.838;8.650;2022-08-18T05:59:14;99376.97;;;21.63;78.85
43119;BME280;28729;49.838;8.650;2022-08-18T06:03:25;99368.56;;;21.63;79.08
43119;BME280;28729;49.838;8.650;2022-08-18T06:07:33;99374.63;;;21.65;78.32
43119;BME280;28729;49.838;8.650;2022-08-18T06:11:36;99377.25;;;21.70;77.55
43119;BME280;28729;49.838;8.650;2022-08-18T06:20:03;99367.00;;;21.74;77.95
43119;BME280;28729;49.838;8.650;2022-08-18T06:28:42;99365.50;;;21.77;78.15
43119;BME280;28729;49.838;8.650;2022-08-18T06:32:52;99377.75;;;21.72;78.84
43119;BME280;28729;49.838;8.650;2022-08-18T06:37:06;99380.56;;;21.72;79.31
43119;BME280;28729;49.838;8.650;2022-08-18T06:41:43;99375.78;;;21.64;79.86
43119;BME280;28729;49.838;8.650;2022-08-18T06:45:46;99377.63;;;21.60;81.05
43119;BME280;28729;49.838;8.650;2022-08-18T06:50:05;99376.31;;;21.57;82.02
43119;BME280;28729;49.838;8.650;2022-08-18T06:58:28;99377.81;;;21.55;81.95
43119;BME280;28729;49.838;8.650;2022-08-18T07:06:36;99396.75;;;21.58;82.09
43119;BME280;28729;49.838;8.650;2022-08-18T07:10:50;99389.66;;;21.60;82.14
43119;BME280;28729;49.838;8.650;2022-08-18T07:15:01;99407.31;;;21.61;82.29
43119;BME280;28729;49.838;8.650;2022-08-18T07:19:10;99405.66;;;21.60;82.74
43119;BME280;28729;49.838;8.650;2022-08-18T07:23:27;99413.75;;;21.53;84.11
43119;BME280;28729;49.838;8.650;2022-08-18T07:27:46;99419.72;;;21.43;84.86
43119;BME280;28729;49.838;8.650;2022-08-18T07:31:54;99422.81;;;21.32;86.32
43119;BME280;28729;49.838;8.650;2022-08-18T07:36:00;99427.13;;;21.21;88.30
43119;BME280;28729;49.838;8.650;2022-08-18T07:40:23;99437.97;;;21.14;89.76
43119;BME280;28729;49.838;8.650;2022-08-18T07:44:32;99453.81;;;21.01;92.92
43119;BME280;28729;49.838;8.650;2022-08-18T07:48:36;99461.22;;;20.88;94.90
43119;BME280;28729;49.838;8.650;2022-08-18T07:53:06;99456.91;;;20.91;97.15
43119;BME280;28729;49.838;8.650;2022-08-18T08:06:07;99452.13;;;21.09;100.00
43119;BME280;28729;49.838;8.650;2022-08-18T08:10:20;99453.31;;;21.16;100.00
43119;BME280;28729;49.838;8.650;2022-08-18T08:14:36;99466.81;;;21.23;100.00
43119;BME280;28729;49.838;8.650;2022-08-18T08:18:48;99470.44;;;21.24;100.00
43119;BME280;28729;49.838;8.650;2022-08-18T08:27:17;99468.81;;;21.31;100.00
43119;BME280;28729;49.838;8.650;2022-08-18T08:31:31;99464.88;;;21.50;100.00
43119;BME280;28729;49.838;8.650;2022-08-18T08:35:51;99464.53;;;21.69;100.00
43119;BME280;28729;49.838;8.650;2022-08-18T08:39:59;99466.66;;;21.80;98.41
43119;BME280;28729;49.838;8.650;2022-08-18T08:48:28;99467.09;;;22.00;97.36
43119;BME280;28729;49.838;8.650;2022-08-18T08:53:05;99465.41;;;22.16;97.46
43119;BME280;28729;49.838;8.650;2022-08-18T08:57:10;99455.66;;;22.22;97.33
43119;BME280;28729;49.838;8.650;2022-08-18T09:01:23;99445.09;;;22.28;95.99
43119;BME280;28729;49.838;8.650;2022-08-18T09:05:36;99440.34;;;22.49;95.79
43119;BME280;28729;49.838;8.650;2022-08-18T09:10:03;99448.53;;;22.84;95.11
43119;BME280;28729;49.838;8.650;2022-08-18T09:18:47;99470.13;;;23.43;93.00
43119;BME280;28729;49.838;8.650;2022-08-18T09:23:10;99460.13;;;23.33;90.81
43119;BME280;28729;49.838;8.650;2022-08-18T09:36:37;99462.03;;;23.00;93.38
43119;BME280;28729;49.838;8.650;2022-08-18T09:40:50;99474.78;;;22.97;93.42
43119;BME280;28729;49.838;8.650;2022-08-18T09:45:39;99482.94;;;22.81;93.65
43119;BME280;28729;49.838;8.650;2022-08-18T09:49:44;99492.75;;;22.66;93.62
43119;BME280;28729;49.838;8.650;2022-08-18T09:54:12;99491.19;;;22.48;95.43
43119;BME280;28729;49.838;8.650;2022-08-18T10:06:35;99483.34;;;22.33;100.00
43119;BME280;28729;49.838;8.650;2022-08-18T10:11:01;99493.91;;;22.36;100.00
43119;BME280;28729;49.838;8.650;2022-08-18T10:15:32;99504.03;;;22.28;100.00
43119;BME280;28729;49.838;8.650;2022-08-18T10:20:03;99504.19;;;22.14;100.00
43119;BME280;28729;49.838;8.650;2022-08-18T10:28:56;99478.91;;;22.32;100.00
43119;BME280;28729;49.838;8.650;2022-08-18T10:33:04;99483.88;;;22.64;99.57
43119;BME280;28729;49.838;8.650;2022-08-18T10:41:30;99499.19;;;23.68;93.01
43119;BME280;28729;49.838;8.650;2022-08-18T10:45:51;99495.50;;;24.09;90.19
43119;BME280;28729;49.838;8.650;2022-08-18T10:50:20;99485.19;;;24.26;88.10
43119;BME280;28729;49.838;8.650;2022-08-18T11:07:45;99464.13;;;24.56;85.32
43119;BME280;28729;49.838;8.650;2022-08-18T11:11:59;99463.44;;;24.72;84.61
43119;BME280;28729;49.838;8.650;2022-08-18T11:16:14;99438.38;;;24.95;82.48
43119;BME280;28729;49.838;8.650;2022-08-18T11:20:20;99434.25;;;25.17;81.72
43119;BME280;28729;49.838;8.650;2022-08-18T11:24:27;99410.78;;;25.41;79.95
43119;BME280;28729;49.838;8.650;2022-08-18T11:28:28;99406.78;;;25.42;78.21
43119;BME280;28729;49.838;8.650;2022-08-18T11:32:36;99387.06;;;25.58;77.88
43119;BME280;28729;49.838;8.650;2022-08-18T11:36:43;99361.72;;;25.74;76.47
43119;BME280;28729;49.838;8.650;2022-08-18T11:41:18;99358.47;;;25.87;75.17
43119;BME280;28729;49.838;8.650;2022-08-18T11:45:23;99371.69;;;26.15;76.04
43119;BME280;28729;49.838;8.650;2022-08-18T11:49:30;99388.13;;;26.61;75.26
43119;BME280;28729;49.838;8.650;2022-08-18T11:54:01;99377.25;;;26.98;70.91
43119;BME280;28729;49.838;8.650;2022-08-18T11:58:05;99384.31;;;27.43;66.54
43119;BME280;28729;49.838;8.650;2022-08-18T12:02:27;99377.22;;;27.95;61.60
43119;BME280;28729;49.838;8.650;2022-08-18T12:06:30;99378.69;;;28.58;60.60
43119;BME280;28729;49.838;8.650;2022-08-18T12:10:33;99378.16;;;29.05;57.42
43119;BME280;28729;49.838;8.650;2022-08-18T12:15:03;99369.56;;;29.62;53.08
43119;BME280;28729;49.838;8.650;2022-08-18T12:19:17;99384.72;;;29.77;52.23
43119;BME280;28729;49.838;8.650;2022-08-18T12:23:22;99374.75;;;30.38;50.84
43119;BME280;28729;49.838;8.650;2022-08-18T12:27:25;99360.47;;;30.83;50.54
43119;BME280;28729;49.838;8.650;2022-08-18T12:31:32;99369.31;;;30.71;48.73
43119;BME280;28729;49.838;8.650;2022-08-18T12:35:48;99373.19;;;30.45;48.64
43119;BME280;28729;49.838;8.650;2022-08-18T12:39:51;99356.31;;;30.73;47.65
43119;BME280;28729;49.838;8.650;2022-08-18T12:43:55;99361.78;;;31.00;47.81
43119;BME280;28729;49.838;8.650;2022-08-18T12:47:59;99358.66;;;31.30;45.96
43119;BME280;28729;49.838;8.650;2022-08-18T12:52:04;99366.69;;;31.06;47.59
43119;BME280;28729;49.838;8.650;2022-08-18T12:56:20;99353.50;;;30.77;47.76
43119;BME280;28729;49.838;8.650;2022-08-18T13:00:22;99355.25;;;30.37;47.08
43119;BME280;28729;49.838;8.650;2022-08-18T13:04:29;99347.59;;;30.45;45.47
43119;BME280;28729;49.838;8.650;2022-08-18T13:08:31;99341.47;;;29.94;48.14
43119;BME280;28729;49.838;8.650;2022-08-18T13:12:48;99336.88;;;30.24;48.12
43119;BME280;28729;49.838;8.650;2022-08-18T13:16:51;99322.84;;;31.22;45.74
43119;BME280;28729;49.838;8.650;2022-08-18T13:20:56;99330.78;;;32.14;41.95
43119;BME280;28729;49.838;8.650;2022-08-18T13:25:03;99315.31;;;32.08;41.37
43119;BME280;28729;49.838;8.650;2022-08-18T13:29:07;99320.16;;;32.33;41.62
43119;BME280;28729;49.838;8.650;2022-08-18T13:33:10;99313.66;;;32.50;40.49
43119;BME280;28729;49.838;8.650;2022-08-18T13:37:32;99295.25;;;32.80;40.41
43119;BME280;28729;49.838;8.650;2022-08-18T13:41:34;99303.59;;;33.30;39.73
43119;BME280;28729;49.838;8.650;2022-08-18T13:45:36;99299.50;;;33.94;38.44
43119;BME280;28729;49.838;8.650;2022-08-18T13:49:39;99285.94;;;34.54;36.94
43119;BME280;28729;49.838;8.650;2022-08-18T13:53:59;99281.19;;;34.74;36.78
43119;BME280;28729;49.838;8.650;2022-08-18T13:58:21;99289.59;;;34.51;36.14
43119;BME280;28729;49.838;8.650;2022-08-18T14:02:22;99285.88;;;33.64;36.56
43119;BME280;28729;49.838;8.650;2022-08-18T14:06:27;99273.50;;;33.15;37.05
43119;BME280;28729;49.838;8.650;2022-08-18T14:10:52;99269.81;;;33.21;37.33
43119;BME280;28729;49.838;8.650;2022-08-18T14:14:54;99267.69;;;33.32;36.54
43119;BME280;28729;49.838;8.650;2022-08-18T14:18:57;99263.44;;;32.85;37.01
43119;BME280;28729;49.838;8.650;2022-08-18T14:23:18;99262.34;;;32.29;37.65
43119;BME280;28729;49.838;8.650;2022-08-18T14:27:44;99248.91;;;31.61;38.89
43119;BME280;28729;49.838;8.650;2022-08-18T14:31:57;99243.22;;;31.47;39.07
43119;BME280;28729;49.838;8.650;2022-08-18T14:35:58;99248.13;;;31.57;38.90
43119;BME280;28729;49.838;8.650;2022-08-18T14:40:10;99241.19;;;31.58;39.23
43119;BME280;28729;49.838;8.650;2022-08-18T14:44:12;99249.72;;;31.37;38.91
43119;BME280;28729;49.838;8.650;2022-08-18T14:48:23;99252.03;;;30.99;40.06
43119;BME280;28729;49.838;8.650;2022-08-18T14:52:27;99236.56;;;30.96;39.73
43119;BME280;28729;49.838;8.650;2022-08-18T14:56:30;99238.53;;;30.81;39.26
43119;BME280;28729;49.838;8.650;2022-08-18T15:00:38;99240.59;;;30.81;38.91
43119;BME280;28729;49.838;8.650;2022-08-18T15:04:54;99237.88;;;30.33;39.85
43119;BME280;28729;49.838;8.650;2022-08-18T15:08:58;99243.25;;;29.90;40.56
43119;BME280;28729;49.838;8.650;2022-08-18T15:12:59;99241.75;;;29.59;40.45
43119;BME280;28729;49.838;8.650;2022-08-18T15:17:02;99235.91;;;29.41;40.70
43119;BME280;28729;49.838;8.650;2022-08-18T15:21:15;99237.78;;;29.26;41.92
43119;BME280;28729;49.838;8.650;2022-08-18T15:25:39;99249.22;;;29.33;41.82
43119;BME280;28729;49.838;8.650;2022-08-18T15:29:45;99254.75;;;29.19;42.16
43119;BME280;28729;49.838;8.650;2022-08-18T15:33:46;99249.22;;;28.99;41.94
43119;BME280;28729;49.838;8.650;2022-08-18T15:37:52;99258.50;;;28.96;42.02
43119;BME280;28729;49.838;8.650;2022-08-18T15:41:55;99249.81;;;28.82;42.05
43119;BME280;28729;49.838;8.650;2022-08-18T15:45:59;99240.72;;;28.66;42.03
43119;BME280;28729;49.838;8.650;2022-08-18T15:50:04;99237.47;;;28.67;42.28
43119;BME280;28729;49.838;8.650;2022-08-18T15:54:25;99232.03;;;28.51;42.61
43119;BME280;28729;49.838;8.650;2022-08-18T15:58:27;99225.34;;;28.40;42.63
43119;BME280;28729;49.838;8.650;2022-08-18T16:02:29;99222.22;;;28.45;42.15
43119;BME280;28729;49.838;8.650;2022-08-18T16:06:32;99224.34;;;28.52;41.45
43119;BME280;28729;49.838;8.650;2022-08-18T16:10:37;99219.75;;;28.44;41.50
43119;BME280;28729;49.838;8.650;2022-08-18T16:14:39;99219.13;;;28.27;42.36
43119;BME280;28729;49.838;8.650;2022-08-18T16:18:43;99218.78;;;28.32;41.42
43119;BME280;28729;49.838;8.650;2022-08-18T16:22:47;99222.69;;;28.21;42.04
43119;BME280;28729;49.838;8.650;2022-08-18T16:26:49;99214.47;;;28.12;41.89
43119;BME280;28729;49.838;8.650;2022-08-18T16:30:52;99211.22;;;28.13;41.64
43119;BME280;28729;49.838;8.650;2022-08-18T16:34:55;99214.50;;;28.15;41.94
43119;BME280;28729;49.838;8.650;2022-08-18T16:38:56;99233.97;;;28.17;41.96
43119;BME280;28729;49.838;8.650;2022-08-18T16:42:58;99230.91;;;28.03;41.78
43119;BME280;28729;49.838;8.650;2022-08-18T16:47:03;99234.28;;;28.12;42.30
43119;BME280;28729;49.838;8.650;2022-08-18T16:51:05;99235.41;;;28.07;41.58
43119;BME280;28729;49.838;8.650;2022-08-18T16:55:10;99236.72;;;27.87;41.96
43119;BME280;28729;49.838;8.650;2022-08-18T16:59:12;99234.31;;;27.66;42.91
43119;BME280;28729;49.838;8.650;2022-08-18T17:03:33;99240.44;;;27.45;43.31
43119;BME280;28729;49.838;8.650;2022-08-18T17:07:53;99235.34;;;27.12;44.35
43119;BME280;28729;49.838;8.650;2022-08-18T17:11:56;99236.56;;;26.91;45.17
43119;BME280;28729;49.838;8.650;2022-08-18T17:15:58;99235.03;;;26.74;45.39
43119;BME280;28729;49.838;8.650;2022-08-18T17:19:59;99236.22;;;26.54;45.54
43119;BME280;28729;49.838;8.650;2022-08-18T17:24:05;99232.59;;;26.37;46.00
43119;BME280;28729;49.838;8.650;2022-08-18T17:28:12;99235.09;;;26.23;46.40
43119;BME280;28729;49.838;8.650;2022-08-18T17:32:26;99230.31;;;26.08;46.56
43119;BME280;28729;49.838;8.650;2022-08-18T17:36:40;99226.41;;;25.97;46.92
43119;BME280;28729;49.838;8.650;2022-08-18T17:40:55;99238.75;;;25.88;47.53
43119;BME280;28729;49.838;8.650;2022-08-18T17:45:02;99242.81;;;25.75;48.24
43119;BME280;28729;49.838;8.650;2022-08-18T17:49:12;99240.63;;;25.68;48.94
43119;BME280;28729;49.838;8.650;2022-08-18T17:53:15;99246.94;;;25.62;49.04
43119;BME280;28729;49.838;8.650;2022-08-18T17:57:21;99245.09;;;25.54;49.07
43119;BME280;28729;49.838;8.650;2022-08-18T18:01:25;99238.66;;;25.53;49.73
43119;BME280;28729;49.838;8.650;2022-08-18T18:05:36;99244.09;;;25.46;50.19
43119;BME280;28729;49.838;8.650;2022-08-18T18:09:39;99256.81;;;25.40;50.15
43119;BME280;28729;49.838;8.650;2022-08-18T18:13:40;99244.09;;;25.30;51.20
43119;BME280;28729;49.838;8.650;2022-08-18T18:17:42;99248.44;;;25.28;51.26
43119;BME280;28729;49.838;8.650;2022-08-18T18:21:48;99245.78;;;25.19;52.32
43119;BME280;28729;49.838;8.650;2022-08-18T18:30:22;99246.09;;;25.01;53.29
43119;BME280;28729;49.838;8.650;2022-08-18T18:38:35;99245.06;;;24.78;54.15
43119;BME280;28729;49.838;8.650;2022-08-18T18:42:38;99240.28;;;24.66;55.40
43119;BME280;28729;49.838;8.650;2022-08-18T18:46:48;99241.59;;;24.56;55.82
43119;BME280;28729;49.838;8.650;2022-08-18T18:51:03;99248.47;;;24.43;56.16
43119;BME280;28729;49.838;8.650;2022-08-18T18:55:16;99257.81;;;24.35;56.70
43119;BME280;28729;49.838;8.650;2022-08-18T18:59:44;99262.44;;;24.27;57.26
43119;BME280;28729;49.838;8.650;2022-08-18T19:04:05;99266.44;;;24.14;58.93
43119;BME280;28729;49.838;8.650;2022-08-18T19:08:18;99271.38;;;24.05;59.18
43119;BME280;28729;49.838;8.650;2022-08-18T19:12:28;99278.53;;;24.02;59.33
43119;BME280;28729;49.838;8.650;2022-08-18T19:16:36;99276.19;;;24.04;59.51
43119;BME280;28729;49.838;8.650;2022-08-18T19:20:43;99283.44;;;24.05;59.31
43119;BME280;28729;49.838;8.650;2022-08-18T19:29:40;99300.69;;;24.04;60.37
43119;BME280;28729;49.838;8.650;2022-08-18T19:33:49;99306.88;;;23.97;60.27
43119;BME280;28729;49.838;8.650;2022-08-18T19:38:02;99310.06;;;23.96;60.10
43119;BME280;28729;49.838;8.650;2022-08-18T19:42:16;99301.53;;;23.92;60.27
43119;BME280;28729;49.838;8.650;2022-08-18T19:46:35;99305.38;;;23.87;60.99
43119;BME280;28729;49.838;8.650;2022-08-18T19:50:48;99306.28;;;23.79;61.51
43119;BME280;28729;49.838;8.650;2022-08-18T19:59:31;99294.72;;;23.81;61.99
43119;BME280;28729;49.838;8.650;2022-08-18T20:08:50;99299.16;;;23.70;63.18
43119;BME280;28729;49.838;8.650;2022-08-18T20:13:31;99296.53;;;23.64;63.69
43119;BME280;28729;49.838;8.650;2022-08-18T20:22:06;99293.00;;;23.55;63.62
43119;BME280;28729;49.838;8.650;2022-08-18T20:26:41;99300.50;;;23.51;64.36
43119;BME280;28729;49.838;8.650;2022-08-18T20:31:10;99299.09;;;23.45;64.41
43119;BME280;28729;49.838;8.650;2022-08-18T20:35:24;99298.81;;;23.38;65.13
43119;BME280;28729;49.838;8.650;2022-08-18T20:39:47;99292.03;;;23.27;65.68
43119;BME280;28729;49.838;8.650;2022-08-18T20:44:00;99294.66;;;23.11;66.49
43119;BME280;28729;49.838;8.650;2022-08-18T20:48:15;99295.78;;;22.97;67.75
43119;BME280;28729;49.838;8.650;2022-08-18T20:56:56;99299.00;;;22.66;68.85
43119;BME280;28729;49.838;8.650;2022-08-18T21:01:00;99302.09;;;22.52;69.70
43119;BME280;28729;49.838;8.650;2022-08-18T21:05:04;99303.09;;;22.48;70.12
43119;BME280;28729;49.838;8.650;2022-08-18T21:09:06;99309.59;;;22.40;70.79
43119;BME280;28729;49.838;8.650;2022-08-18T21:13:08;99311.44;;;22.36;71.17
43119;BME280;28729;49.838;8.650;2022-08-18T21:17:13;99316.13;;;22.32;72.06
43119;BME280;28729;49.838;8.650;2022-08-18T21:21:28;99314.81;;;22.29;72.46
43119;BME280;28729;49.838;8.650;2022-08-18T21:25:31;99304.44;;;22.21;72.63
43119;BME280;28729;49.838;8.650;2022-08-18T21:29:34;99304.16;;;22.14;73.37
43119;BME280;28729;49.838;8.650;2022-08-18T21:33:54;99303.38;;;22.04;73.25
43119;BME280;28729;49.838;8.650;2022-08-18T21:38:09;99304.56;;;21.95;74.26
43119;BME280;28729;49.838;8.650;2022-08-18T21:42:26;99302.66;;;21.87;74.96
43119;BME280;28729;49.838;8.650;2022-08-18T21:46:29;99305.81;;;21.76;75.41
43119;BME280;28729;49.838;8.650;2022-08-18T21:50:32;99313.44;;;21.67;76.20
43119;BME280;28729;49.838;8.650;2022-08-18T21:54:34;99305.06;;;21.58;75.73
43119;BME280;28729;49.838;8.650;2022-08-18T21:58:42;99317.13;;;21.50;77.14
43119;BME280;28729;49.838;8.650;2022-08-18T22:02:46;99312.84;;;21.44;77.69
43119;BME280;28729;49.838;8.650;2022-08-18T22:06:58;99317.34;;;21.36;78.54
43119;BME280;28729;49.838;8.650;2022-08-18T22:11:16;99328.69;;;21.31;78.52
43119;BME280;28729;49.838;8.650;2022-08-18T22:15:56;99337.25;;;21.26;78.90
43119;BME280;28729;49.838;8.650;2022-08-18T22:24:37;99344.03;;;21.25;79.83
43119;BME280;28729;49.838;8.650;2022-08-18T22:28:53;99356.72;;;21.23;80.30
43119;BME280;28729;49.838;8.650;2022-08-18T22:32:55;99358.34;;;21.24;80.48
43119;BME280;28729;49.838;8.650;2022-08-18T22:37:09;99358.84;;;21.26;81.56
43119;BME280;28729;49.838;8.650;2022-08-18T22:41:12;99357.88;;;21.30;81.41
43119;BME280;28729;49.838;8.650;2022-08-18T22:45:14;99358.84;;;21.34;81.36
43119;BME280;28729;49.838;8.650;2022-08-18T22:49:16;99357.41;;;21.37;81.58
43119;BME280;28729;49.838;8.650;2022-08-18T22:53:19;99358.72;;;21.39;81.81
43119;BME280;28729;49.838;8.650;2022-08-18T22:57:22;99376.50;;;21.44;81.94
43119;BME280;28729;49.838;8.650;2022-08-18T23:01:24;99379.44;;;21.47;81.91
43119;BME280;28729;49.838;8.650;2022-08-18T23:05:41;99369.91;;;21.48;81.48
43119;BME280;28729;49.838;8.650;2022-08-18T23:09:44;99357.88;;;21.48;81.46
43119;BME280;28729;49.838;8.650;2022-08-18T23:13:46;99374.69;;;21.48;82.06
43119;BME280;28729;49.838;8.650;2022-08-18T23:17:48;99363.47;;;21.48;82.54
43119;BME280;28729;49.838;8.650;2022-08-18T23:21:50;99364.31;;;21.48;82.35
43119;BME280;28729;49.838;8.650;2022-08-18T23:25:55;99361.16;;;21.50;82.91
43119;BME280;28729;49.838;8.650;2022-08-18T23:29:58;99354.41;;;21.51;83.26
43119;BME280;28729;49.838;8.650;2022-08-18T23:34:04;99352.06;;;21.53;83.00
43119;BME280;28729;49.838;8.650;2022-08-18T23:38:36;99363.28;;;21.53;82.45
43119;BME280;28729;49.838;8.650;2022-08-18T23:42:38;99364.59;;;21.55;82.03
43119;BME280;28729;49.838;8.650;2022-08-18T23:46:41;99359.00;;;21.55;81.65
43119;BME280;28729;49.838;8.650;2022-08-18T23:50:46;99357.50;;;21.58;81.19
43119;BME280;28729;49.838;8.650;2022-08-18T23:54:48;99359.13;;;21.59;81.24
43119;BME280;28729;49.838;8.650;2022-08-18T23:58:50;99380.09;;;21.61;80.69
